Terminal Aerodrome Forecast
Issued by NWS

Home | Current Version | Previous Version | Text Only | Print | Product List | Glossary On
Versions: 1 2 3 4 5 6 7 8 9 10 11 12 13 14 15
000
FTUS42 TJSJ 010100 AAA
TAFJBQ
TAF AMD
TJBQ 010101Z 0101/0124 10016KT P6SM VCSH FEW030 BKN050
      TEMPO 0101/0103 5SM -SHRA BKN015
     FM010600 10010KT P6SM FEW030 SCT050
     FM011300 08013KT P6SM SCT025
     FM011700 08022KT P6SM SCT025
      AMD NOT SKED 0102/0111=

USA.gov is the U.S. government's official web portal to all federal, state and local government web resources and services.